Карточка аэропорта USTR

Внимание!
Информация на этой странице в стадии наполнения.
Если вы не увидели какой-то информации, или заметили неточность - пожалуйста сообщите нам!
Спасибо!
Команда RU-STAFF
Название аэропортаРощино
Название аэропорта (англ.)Roshschino
Превышение378 ft. (115.2 m.)
Координаты57°10.098', 65°19.002'
Высота перехода3000ft
Эшелон переходаQNH⩾1013hPa:FL040; QNH⩾977hPa:FL050; QNH⩽977hPa:FL060
Коды ответчика5101-5137
Зона ОрВДТюмень РПИ (USTV)
Данные METARUSTR 191200Z 03007MPS 9999 FEW056CB 23/13 Q1002 R30/090065 R03/090065 TEMPO VRB15MPS 2100 -TSRA SQ BKN016CB
Проноз погоды (TAF)USTR 191031Z 1912/2012 01005G12MPS 9999 SCT030CB TEMPO 1912/1915 VRB15MPS 1200 TSRAGR SQ BKN016CB FM191500 31003G13MPS 6000 BKN016CB TEMPO 1915/2003 0500 +TSRA FG VV002 TEMPO 2003/2012 -TSRA
NOTAMshow/hide NOTAM
AWOS   TABLE

Информация о ВПП

ВПП Длина ВПП (м.) Покрытие Курс ВПП Частота ILS
122704Асфальтобетон121 
302704Асфальтобетон301 
033003Асфальтобетон34108.3
213003Асфальтобетон214110.7

Диспетчерские позиции

Позывной Наименование органа УВД Частота
USTR_R_APPТюмень-Круг126.100
USTR_GNDТюмень-Руление119.000
USTR_TWRТюмень-Старт118.200



Спутниковое изображение